sensor_id;sensor_type;location;lat;lon;timestamp;P1;durP1;ratioP1;P2;durP2;ratioP2
45548;SDS011;31270;48.328;10.096;2023-09-19T00:01:05;6.07;;;2.60;;
45548;SDS011;31270;48.328;10.096;2023-09-19T00:03:34;3.88;;;3.03;;
45548;SDS011;31270;48.328;10.096;2023-09-19T00:06:04;6.00;;;2.88;;
45548;SDS011;31270;48.328;10.096;2023-09-19T00:08:30;4.22;;;2.90;;
45548;SDS011;31270;48.328;10.096;2023-09-19T00:10:58;4.05;;;2.97;;
45548;SDS011;31270;48.328;10.096;2023-09-19T00:13:28;4.82;;;3.03;;
45548;SDS011;31270;48.328;10.096;2023-09-19T00:15:55;5.03;;;2.65;;
45548;SDS011;31270;48.328;10.096;2023-09-19T00:18:24;2.85;;;2.55;;
45548;SDS011;31270;48.328;10.096;2023-09-19T00:20:53;8.27;;;3.38;;
45548;SDS011;31270;48.328;10.096;2023-09-19T00:23:22;4.50;;;2.35;;
45548;SDS011;31270;48.328;10.096;2023-09-19T00:25:49;4.82;;;2.67;;
45548;SDS011;31270;48.328;10.096;2023-09-19T00:28:16;3.15;;;2.60;;
45548;SDS011;31270;48.328;10.096;2023-09-19T00:30:45;3.60;;;2.85;;
45548;SDS011;31270;48.328;10.096;2023-09-19T00:33:15;3.80;;;2.67;;
45548;SDS011;31270;48.328;10.096;2023-09-19T00:35:46;4.05;;;2.83;;
45548;SDS011;31270;48.328;10.096;2023-09-19T00:38:13;4.43;;;2.55;;
45548;SDS011;31270;48.328;10.096;2023-09-19T00:40:43;4.35;;;2.88;;
45548;SDS011;31270;48.328;10.096;2023-09-19T00:43:09;3.00;;;2.50;;
45548;SDS011;31270;48.328;10.096;2023-09-19T00:45:35;6.70;;;2.88;;
45548;SDS011;31270;48.328;10.096;2023-09-19T00:48:03;5.72;;;2.80;;
45548;SDS011;31270;48.328;10.096;2023-09-19T00:50:34;3.25;;;2.63;;
45548;SDS011;31270;48.328;10.096;2023-09-19T00:53:00;6.70;;;3.25;;
45548;SDS011;31270;48.328;10.096;2023-09-19T00:55:33;6.30;;;2.90;;
45548;SDS011;31270;48.328;10.096;2023-09-19T00:57:59;6.53;;;2.97;;
45548;SDS011;31270;48.328;10.096;2023-09-19T01:00:26;4.60;;;2.53;;
45548;SDS011;31270;48.328;10.096;2023-09-19T01:02:52;3.65;;;3.03;;
45548;SDS011;31270;48.328;10.096;2023-09-19T01:05:19;4.80;;;3.13;;
45548;SDS011;31270;48.328;10.096;2023-09-19T01:07:44;4.47;;;3.22;;
45548;SDS011;31270;48.328;10.096;2023-09-19T01:10:14;4.07;;;3.10;;
45548;SDS011;31270;48.328;10.096;2023-09-19T01:12:54;5.53;;;2.70;;
45548;SDS011;31270;48.328;10.096;2023-09-19T01:21:15;4.88;;;3.20;;
45548;SDS011;31270;48.328;10.096;2023-09-19T01:30:31;6.88;;;3.22;;
45548;SDS011;31270;48.328;10.096;2023-09-19T01:33:01;5.25;;;3.20;;
45548;SDS011;31270;48.328;10.096;2023-09-19T01:35:27;4.43;;;3.03;;
45548;SDS011;31270;48.328;10.096;2023-09-19T01:37:53;7.97;;;2.60;;
45548;SDS011;31270;48.328;10.096;2023-09-19T01:40:19;5.43;;;3.03;;
45548;SDS011;31270;48.328;10.096;2023-09-19T01:45:50;3.63;;;2.97;;
45548;SDS011;31270;48.328;10.096;2023-09-19T01:51:11;6.28;;;2.55;;
45548;SDS011;31270;48.328;10.096;2023-09-19T01:53:53;6.13;;;2.85;;
45548;SDS011;31270;48.328;10.096;2023-09-19T01:56:31;4.15;;;2.60;;
45548;SDS011;31270;48.328;10.096;2023-09-19T01:59:02;3.92;;;2.60;;
45548;SDS011;31270;48.328;10.096;2023-09-19T02:01:32;4.65;;;2.58;;
45548;SDS011;31270;48.328;10.096;2023-09-19T02:04:00;5.13;;;2.55;;
45548;SDS011;31270;48.328;10.096;2023-09-19T02:06:26;4.13;;;2.42;;
45548;SDS011;31270;48.328;10.096;2023-09-19T02:08:53;3.35;;;2.60;;
45548;SDS011;31270;48.328;10.096;2023-09-19T02:11:19;5.10;;;2.47;;
45548;SDS011;31270;48.328;10.096;2023-09-19T02:13:45;5.47;;;2.70;;
45548;SDS011;31270;48.328;10.096;2023-09-19T02:16:11;3.55;;;2.50;;
45548;SDS011;31270;48.328;10.096;2023-09-19T02:18:37;4.43;;;2.53;;
45548;SDS011;31270;48.328;10.096;2023-09-19T02:21:04;4.25;;;2.47;;
45548;SDS011;31270;48.328;10.096;2023-09-19T02:23:32;4.75;;;3.47;;
45548;SDS011;31270;48.328;10.096;2023-09-19T02:25:58;5.00;;;2.80;;
45548;SDS011;31270;48.328;10.096;2023-09-19T02:28:30;3.47;;;2.55;;
45548;SDS011;31270;48.328;10.096;2023-09-19T02:30:57;4.78;;;2.28;;
45548;SDS011;31270;48.328;10.096;2023-09-19T02:33:25;6.28;;;2.65;;
45548;SDS011;31270;48.328;10.096;2023-09-19T02:35:54;5.40;;;2.50;;
45548;SDS011;31270;48.328;10.096;2023-09-19T02:38:22;4.22;;;2.53;;
45548;SDS011;31270;48.328;10.096;2023-09-19T02:40:50;5.45;;;2.72;;
45548;SDS011;31270;48.328;10.096;2023-09-19T02:43:16;5.32;;;2.88;;
45548;SDS011;31270;48.328;10.096;2023-09-19T02:45:42;3.25;;;2.58;;
45548;SDS011;31270;48.328;10.096;2023-09-19T02:48:08;2.92;;;2.60;;
45548;SDS011;31270;48.328;10.096;2023-09-19T02:50:33;6.13;;;2.70;;
45548;SDS011;31270;48.328;10.096;2023-09-19T02:52:59;5.32;;;2.78;;
45548;SDS011;31270;48.328;10.096;2023-09-19T02:55:25;4.43;;;2.78;;
45548;SDS011;31270;48.328;10.096;2023-09-19T02:57:51;6.20;;;2.88;;
45548;SDS011;31270;48.328;10.096;2023-09-19T03:00:20;4.80;;;2.47;;
45548;SDS011;31270;48.328;10.096;2023-09-19T03:02:46;5.32;;;3.03;;
45548;SDS011;31270;48.328;10.096;2023-09-19T03:05:16;4.07;;;3.00;;
45548;SDS011;31270;48.328;10.096;2023-09-19T03:07:42;6.03;;;3.05;;
45548;SDS011;31270;48.328;10.096;2023-09-19T03:10:30;3.97;;;2.75;;
45548;SDS011;31270;48.328;10.096;2023-09-19T03:12:56;4.30;;;2.75;;
45548;SDS011;31270;48.328;10.096;2023-09-19T03:15:25;3.92;;;2.38;;
45548;SDS011;31270;48.328;10.096;2023-09-19T03:17:50;4.20;;;3.00;;
45548;SDS011;31270;48.328;10.096;2023-09-19T03:20:18;5.07;;;3.15;;
45548;SDS011;31270;48.328;10.096;2023-09-19T03:22:44;3.72;;;2.80;;
45548;SDS011;31270;48.328;10.096;2023-09-19T03:25:10;3.40;;;2.42;;
45548;SDS011;31270;48.328;10.096;2023-09-19T03:27:37;2.92;;;2.53;;
45548;SDS011;31270;48.328;10.096;2023-09-19T03:30:03;3.25;;;2.60;;
45548;SDS011;31270;48.328;10.096;2023-09-19T03:32:34;4.00;;;2.47;;
45548;SDS011;31270;48.328;10.096;2023-09-19T03:35:08;3.95;;;2.42;;
45548;SDS011;31270;48.328;10.096;2023-09-19T03:37:42;5.40;;;2.72;;
45548;SDS011;31270;48.328;10.096;2023-09-19T03:40:09;4.03;;;2.72;;
45548;SDS011;31270;48.328;10.096;2023-09-19T03:42:39;3.35;;;2.65;;
45548;SDS011;31270;48.328;10.096;2023-09-19T03:45:06;2.90;;;2.30;;
45548;SDS011;31270;48.328;10.096;2023-09-19T03:47:36;6.28;;;2.50;;
45548;SDS011;31270;48.328;10.096;2023-09-19T03:50:02;4.35;;;2.55;;
45548;SDS011;31270;48.328;10.096;2023-09-19T03:52:28;3.80;;;2.65;;
45548;SDS011;31270;48.328;10.096;2023-09-19T03:54:53;2.90;;;2.35;;
45548;SDS011;31270;48.328;10.096;2023-09-19T03:57:19;4.28;;;2.60;;
45548;SDS011;31270;48.328;10.096;2023-09-19T03:59:46;7.93;;;2.50;;
45548;SDS011;31270;48.328;10.096;2023-09-19T04:02:12;4.20;;;2.75;;
45548;SDS011;31270;48.328;10.096;2023-09-19T04:04:47;3.55;;;2.58;;
45548;SDS011;31270;48.328;10.096;2023-09-19T04:07:13;3.65;;;2.78;;
45548;SDS011;31270;48.328;10.096;2023-09-19T04:09:39;2.90;;;2.60;;
45548;SDS011;31270;48.328;10.096;2023-09-19T04:12:04;3.17;;;2.50;;
45548;SDS011;31270;48.328;10.096;2023-09-19T04:14:31;6.10;;;2.55;;
45548;SDS011;31270;48.328;10.096;2023-09-19T04:16:56;6.13;;;3.00;;
45548;SDS011;31270;48.328;10.096;2023-09-19T04:19:22;4.00;;;2.67;;
45548;SDS011;31270;48.328;10.096;2023-09-19T04:21:47;2.40;;;2.20;;
45548;SDS011;31270;48.328;10.096;2023-09-19T04:24:13;3.90;;;2.70;;
45548;SDS011;31270;48.328;10.096;2023-09-19T04:26:39;3.70;;;2.78;;
45548;SDS011;31270;48.328;10.096;2023-09-19T04:29:05;5.07;;;2.40;;
45548;SDS011;31270;48.328;10.096;2023-09-19T04:31:31;3.58;;;2.60;;
45548;SDS011;31270;48.328;10.096;2023-09-19T04:33:57;3.33;;;2.33;;
45548;SDS011;31270;48.328;10.096;2023-09-19T04:36:24;3.08;;;2.47;;
45548;SDS011;31270;48.328;10.096;2023-09-19T04:38:50;3.50;;;2.72;;
45548;SDS011;31270;48.328;10.096;2023-09-19T04:41:15;3.40;;;2.50;;
45548;SDS011;31270;48.328;10.096;2023-09-19T04:43:41;3.88;;;2.40;;
45548;SDS011;31270;48.328;10.096;2023-09-19T04:46:12;5.63;;;2.45;;
45548;SDS011;31270;48.328;10.096;2023-09-19T04:48:39;4.53;;;2.60;;
45548;SDS011;31270;48.328;10.096;2023-09-19T04:51:05;4.00;;;2.50;;
45548;SDS011;31270;48.328;10.096;2023-09-19T04:53:30;2.38;;;1.98;;
45548;SDS011;31270;48.328;10.096;2023-09-19T04:55:56;4.20;;;2.53;;
45548;SDS011;31270;48.328;10.096;2023-09-19T04:58:23;4.70;;;2.40;;
45548;SDS011;31270;48.328;10.096;2023-09-19T05:00:48;4.20;;;2.30;;
45548;SDS011;31270;48.328;10.096;2023-09-19T05:03:16;4.10;;;2.53;;
45548;SDS011;31270;48.328;10.096;2023-09-19T05:05:42;3.00;;;2.30;;
45548;SDS011;31270;48.328;10.096;2023-09-19T05:08:08;5.63;;;2.22;;
45548;SDS011;31270;48.328;10.096;2023-09-19T05:10:34;2.83;;;2.35;;
45548;SDS011;31270;48.328;10.096;2023-09-19T05:13:03;3.97;;;2.60;;
45548;SDS011;31270;48.328;10.096;2023-09-19T05:15:29;5.82;;;2.35;;
45548;SDS011;31270;48.328;10.096;2023-09-19T05:17:56;2.05;;;1.85;;
45548;SDS011;31270;48.328;10.096;2023-09-19T05:20:25;5.18;;;1.95;;
45548;SDS011;31270;48.328;10.096;2023-09-19T05:23:04;3.08;;;1.95;;
45548;SDS011;31270;48.328;10.096;2023-09-19T05:25:34;5.43;;;2.33;;
45548;SDS011;31270;48.328;10.096;2023-09-19T05:28:02;2.40;;;1.90;;
45548;SDS011;31270;48.328;10.096;2023-09-19T05:30:31;3.15;;;2.08;;
45548;SDS011;31270;48.328;10.096;2023-09-19T05:32:57;3.42;;;1.55;;
45548;SDS011;31270;48.328;10.096;2023-09-19T05:35:24;2.17;;;1.80;;
45548;SDS011;31270;48.328;10.096;2023-09-19T05:37:50;5.25;;;1.63;;
45548;SDS011;31270;48.328;10.096;2023-09-19T05:40:19;1.73;;;1.60;;
45548;SDS011;31270;48.328;10.096;2023-09-19T05:42:45;2.25;;;1.90;;
45548;SDS011;31270;48.328;10.096;2023-09-19T05:45:12;2.58;;;1.75;;
45548;SDS011;31270;48.328;10.096;2023-09-19T05:47:39;4.88;;;2.40;;
45548;SDS011;31270;48.328;10.096;2023-09-19T05:50:11;2.28;;;1.73;;
45548;SDS011;31270;48.328;10.096;2023-09-19T05:52:38;2.70;;;1.80;;
45548;SDS011;31270;48.328;10.096;2023-09-19T05:55:06;4.43;;;1.83;;
45548;SDS011;31270;48.328;10.096;2023-09-19T05:57:32;2.95;;;1.77;;
45548;SDS011;31270;48.328;10.096;2023-09-19T06:00:02;2.42;;;1.70;;
45548;SDS011;31270;48.328;10.096;2023-09-19T06:02:33;1.75;;;1.60;;
45548;SDS011;31270;48.328;10.096;2023-09-19T06:05:00;3.35;;;1.63;;
45548;SDS011;31270;48.328;10.096;2023-09-19T06:07:26;2.53;;;1.58;;
45548;SDS011;31270;48.328;10.096;2023-09-19T06:10:02;2.63;;;1.40;;
45548;SDS011;31270;48.328;10.096;2023-09-19T06:12:32;2.10;;;1.65;;
45548;SDS011;31270;48.328;10.096;2023-09-19T06:14:58;2.38;;;1.65;;
45548;SDS011;31270;48.328;10.096;2023-09-19T06:17:24;6.22;;;2.45;;
45548;SDS011;31270;48.328;10.096;2023-09-19T06:19:52;4.50;;;1.70;;
45548;SDS011;31270;48.328;10.096;2023-09-19T06:22:18;3.83;;;1.50;;
45548;SDS011;31270;48.328;10.096;2023-09-19T06:24:44;4.68;;;1.63;;
45548;SDS011;31270;48.328;10.096;2023-09-19T06:27:10;2.90;;;1.80;;
45548;SDS011;31270;48.328;10.096;2023-09-19T06:29:36;3.65;;;1.65;;
45548;SDS011;31270;48.328;10.096;2023-09-19T06:32:06;4.75;;;1.90;;
45548;SDS011;31270;48.328;10.096;2023-09-19T06:34:35;2.00;;;1.60;;
45548;SDS011;31270;48.328;10.096;2023-09-19T06:37:02;4.45;;;1.92;;
45548;SDS011;31270;48.328;10.096;2023-09-19T06:39:28;2.97;;;1.70;;
45548;SDS011;31270;48.328;10.096;2023-09-19T06:41:54;5.68;;;1.58;;
45548;SDS011;31270;48.328;10.096;2023-09-19T06:44:20;1.80;;;1.40;;
45548;SDS011;31270;48.328;10.096;2023-09-19T06:46:49;2.85;;;1.70;;
45548;SDS011;31270;48.328;10.096;2023-09-19T06:49:16;2.45;;;1.63;;
45548;SDS011;31270;48.328;10.096;2023-09-19T06:51:42;3.25;;;1.70;;
45548;SDS011;31270;48.328;10.096;2023-09-19T06:54:09;1.40;;;1.30;;
45548;SDS011;31270;48.328;10.096;2023-09-19T06:56:35;3.08;;;1.60;;
45548;SDS011;31270;48.328;10.096;2023-09-19T06:59:00;3.70;;;1.70;;
45548;SDS011;31270;48.328;10.096;2023-09-19T07:01:27;2.00;;;1.60;;
45548;SDS011;31270;48.328;10.096;2023-09-19T07:03:53;2.28;;;1.58;;
45548;SDS011;31270;48.328;10.096;2023-09-19T07:06:19;3.92;;;1.58;;
45548;SDS011;31270;48.328;10.096;2023-09-19T07:08:45;5.35;;;1.75;;
45548;SDS011;31270;48.328;10.096;2023-09-19T07:11:11;2.95;;;1.40;;
45548;SDS011;31270;48.328;10.096;2023-09-19T07:13:37;4.72;;;1.73;;
45548;SDS011;31270;48.328;10.096;2023-09-19T07:16:10;2.97;;;1.65;;
45548;SDS011;31270;48.328;10.096;2023-09-19T07:18:53;1.63;;;1.40;;
45548;SDS011;31270;48.328;10.096;2023-09-19T07:21:20;4.18;;;1.73;;
45548;SDS011;31270;48.328;10.096;2023-09-19T07:23:46;5.03;;;1.88;;
45548;SDS011;31270;48.328;10.096;2023-09-19T07:26:12;4.45;;;1.50;;
45548;SDS011;31270;48.328;10.096;2023-09-19T07:28:38;2.67;;;1.60;;
45548;SDS011;31270;48.328;10.096;2023-09-19T07:31:04;2.83;;;1.60;;
45548;SDS011;31270;48.328;10.096;2023-09-19T07:33:30;2.67;;;1.60;;
45548;SDS011;31270;48.328;10.096;2023-09-19T07:35:56;1.52;;;1.42;;
45548;SDS011;31270;48.328;10.096;2023-09-19T07:38:22;3.72;;;1.52;;
45548;SDS011;31270;48.328;10.096;2023-09-19T07:40:47;3.58;;;1.35;;
45548;SDS011;31270;48.328;10.096;2023-09-19T07:43:13;1.52;;;1.42;;
45548;SDS011;31270;48.328;10.096;2023-09-19T07:45:39;3.97;;;1.50;;
45548;SDS011;31270;48.328;10.096;2023-09-19T07:48:05;2.60;;;1.60;;
45548;SDS011;31270;48.328;10.096;2023-09-19T07:50:33;1.92;;;1.38;;
45548;SDS011;31270;48.328;10.096;2023-09-19T07:53:01;2.08;;;1.60;;
45548;SDS011;31270;48.328;10.096;2023-09-19T07:55:29;2.25;;;1.08;;
45548;SDS011;31270;48.328;10.096;2023-09-19T07:57:55;3.22;;;1.30;;
45548;SDS011;31270;48.328;10.096;2023-09-19T08:00:21;2.72;;;1.38;;
45548;SDS011;31270;48.328;10.096;2023-09-19T08:02:47;3.60;;;1.40;;
45548;SDS011;31270;48.328;10.096;2023-09-19T08:05:13;1.55;;;1.15;;
45548;SDS011;31270;48.328;10.096;2023-09-19T08:07:43;3.70;;;1.50;;
45548;SDS011;31270;48.328;10.096;2023-09-19T08:10:14;2.15;;;1.38;;
45548;SDS011;31270;48.328;10.096;2023-09-19T08:12:41;1.73;;;1.25;;
45548;SDS011;31270;48.328;10.096;2023-09-19T08:15:20;2.40;;;1.42;;
45548;SDS011;31270;48.328;10.096;2023-09-19T08:17:46;3.08;;;1.50;;
45548;SDS011;31270;48.328;10.096;2023-09-19T08:20:12;1.80;;;1.20;;
45548;SDS011;31270;48.328;10.096;2023-09-19T08:25:15;1.85;;;1.27;;
45548;SDS011;31270;48.328;10.096;2023-09-19T08:27:42;4.35;;;1.60;;
45548;SDS011;31270;48.328;10.096;2023-09-19T08:30:13;1.67;;;1.30;;
45548;SDS011;31270;48.328;10.096;2023-09-19T08:32:39;2.08;;;1.50;;
45548;SDS011;31270;48.328;10.096;2023-09-19T08:35:07;5.53;;;1.70;;
45548;SDS011;31270;48.328;10.096;2023-09-19T08:37:34;1.85;;;1.35;;
45548;SDS011;31270;48.328;10.096;2023-09-19T08:40:00;2.53;;;1.58;;
45548;SDS011;31270;48.328;10.096;2023-09-19T08:42:25;2.95;;;1.55;;
45548;SDS011;31270;48.328;10.096;2023-09-19T08:44:52;7.53;;;1.40;;
45548;SDS011;31270;48.328;10.096;2023-09-19T08:47:27;2.20;;;1.40;;
45548;SDS011;31270;48.328;10.096;2023-09-19T08:50:19;2.85;;;1.27;;
45548;SDS011;31270;48.328;10.096;2023-09-19T08:52:53;2.28;;;1.40;;
45548;SDS011;31270;48.328;10.096;2023-09-19T08:55:23;3.10;;;1.50;;
45548;SDS011;31270;48.328;10.096;2023-09-19T08:57:52;4.18;;;1.55;;
45548;SDS011;31270;48.328;10.096;2023-09-19T09:00:28;1.90;;;1.42;;
45548;SDS011;31270;48.328;10.096;2023-09-19T09:02:55;1.48;;;1.35;;
45548;SDS011;31270;48.328;10.096;2023-09-19T09:05:22;1.75;;;1.30;;
45548;SDS011;31270;48.328;10.096;2023-09-19T09:07:49;1.58;;;1.38;;
45548;SDS011;31270;48.328;10.096;2023-09-19T09:10:20;3.63;;;1.52;;
45548;SDS011;31270;48.328;10.096;2023-09-19T09:12:51;2.13;;;1.38;;
45548;SDS011;31270;48.328;10.096;2023-09-19T09:15:21;1.58;;;1.35;;
45548;SDS011;31270;48.328;10.096;2023-09-19T09:17:52;1.85;;;1.00;;
45548;SDS011;31270;48.328;10.096;2023-09-19T09:20:18;2.17;;;1.33;;
45548;SDS011;31270;48.328;10.096;2023-09-19T09:22:51;1.95;;;1.00;;
45548;SDS011;31270;48.328;10.096;2023-09-19T09:25:18;2.15;;;1.27;;
45548;SDS011;31270;48.328;10.096;2023-09-19T09:27:46;2.85;;;1.25;;
45548;SDS011;31270;48.328;10.096;2023-09-19T09:30:34;2.88;;;1.48;;
45548;SDS011;31270;48.328;10.096;2023-09-19T09:33:08;2.28;;;1.35;;
45548;SDS011;31270;48.328;10.096;2023-09-19T09:38:17;1.45;;;1.35;;
45548;SDS011;31270;48.328;10.096;2023-09-19T09:40:51;1.80;;;1.48;;
45548;SDS011;31270;48.328;10.096;2023-09-19T09:43:37;1.88;;;1.30;;
45548;SDS011;31270;48.328;10.096;2023-09-19T09:49:06;2.83;;;1.38;;
45548;SDS011;31270;48.328;10.096;2023-09-19T09:51:50;1.77;;;1.50;;
45548;SDS011;31270;48.328;10.096;2023-09-19T09:54:59;1.58;;;1.30;;
45548;SDS011;31270;48.328;10.096;2023-09-19T09:57:26;2.25;;;1.23;;
45548;SDS011;31270;48.328;10.096;2023-09-19T09:59:56;1.80;;;1.30;;
45548;SDS011;31270;48.328;10.096;2023-09-19T10:02:45;2.10;;;1.30;;
45548;SDS011;31270;48.328;10.096;2023-09-19T10:05:18;1.83;;;1.30;;
45548;SDS011;31270;48.328;10.096;2023-09-19T10:07:51;1.45;;;1.23;;
45548;SDS011;31270;48.328;10.096;2023-09-19T10:13:10;1.65;;;1.02;;
45548;SDS011;31270;48.328;10.096;2023-09-19T10:15:50;1.20;;;1.10;;
45548;SDS011;31270;48.328;10.096;2023-09-19T10:18:23;1.25;;;1.05;;
45548;SDS011;31270;48.328;10.096;2023-09-19T10:20:50;3.40;;;1.15;;
45548;SDS011;31270;48.328;10.096;2023-09-19T10:23:19;2.75;;;1.23;;
45548;SDS011;31270;48.328;10.096;2023-09-19T10:25:51;1.63;;;1.10;;
45548;SDS011;31270;48.328;10.096;2023-09-19T10:28:18;3.15;;;1.25;;
45548;SDS011;31270;48.328;10.096;2023-09-19T10:30:48;2.92;;;0.98;;
45548;SDS011;31270;48.328;10.096;2023-09-19T10:33:16;1.05;;;0.95;;
45548;SDS011;31270;48.328;10.096;2023-09-19T10:35:46;1.10;;;1.00;;
45548;SDS011;31270;48.328;10.096;2023-09-19T10:38:13;2.13;;;1.02;;
45548;SDS011;31270;48.328;10.096;2023-09-19T10:40:49;0.90;;;0.90;;
45548;SDS011;31270;48.328;10.096;2023-09-19T10:43:19;1.23;;;0.90;;
45548;SDS011;31270;48.328;10.096;2023-09-19T10:45:47;1.23;;;1.13;;
45548;SDS011;31270;48.328;10.096;2023-09-19T10:48:20;2.25;;;1.20;;
45548;SDS011;31270;48.328;10.096;2023-09-19T10:53:46;0.80;;;0.75;;
45548;SDS011;31270;48.328;10.096;2023-09-19T10:56:20;2.10;;;1.15;;
45548;SDS011;31270;48.328;10.096;2023-09-19T10:59:04;2.17;;;1.30;;
45548;SDS011;31270;48.328;10.096;2023-09-19T11:01:41;1.65;;;1.23;;
45548;SDS011;31270;48.328;10.096;2023-09-19T11:04:35;2.03;;;1.00;;
45548;SDS011;31270;48.328;10.096;2023-09-19T11:07:05;1.10;;;0.90;;
45548;SDS011;31270;48.328;10.096;2023-09-19T11:09:46;1.40;;;1.10;;
45548;SDS011;31270;48.328;10.096;2023-09-19T11:15:10;1.60;;;1.17;;
45548;SDS011;31270;48.328;10.096;2023-09-19T11:19:00;1.85;;;1.02;;
45548;SDS011;31270;48.328;10.096;2023-09-19T11:26:47;2.38;;;1.33;;
45548;SDS011;31270;48.328;10.096;2023-09-19T11:29:26;2.75;;;1.13;;
45548;SDS011;31270;48.328;10.096;2023-09-19T11:31:54;1.80;;;1.10;;
45548;SDS011;31270;48.328;10.096;2023-09-19T11:39:38;2.38;;;1.10;;
45548;SDS011;31270;48.328;10.096;2023-09-19T11:48:21;2.85;;;1.08;;
45548;SDS011;31270;48.328;10.096;2023-09-19T11:50:50;2.38;;;1.40;;
45548;SDS011;31270;48.328;10.096;2023-09-19T11:53:17;1.20;;;1.10;;
45548;SDS011;31270;48.328;10.096;2023-09-19T11:55:45;1.17;;;1.00;;
45548;SDS011;31270;48.328;10.096;2023-09-19T11:58:11;2.72;;;1.08;;
45548;SDS011;31270;48.328;10.096;2023-09-19T12:00:42;1.85;;;1.00;;
45548;SDS011;31270;48.328;10.096;2023-09-19T12:03:11;1.50;;;0.90;;
45548;SDS011;31270;48.328;10.096;2023-09-19T12:05:39;2.60;;;1.20;;
45548;SDS011;31270;48.328;10.096;2023-09-19T12:08:05;2.25;;;1.02;;
45548;SDS011;31270;48.328;10.096;2023-09-19T12:10:45;1.33;;;0.93;;
45548;SDS011;31270;48.328;10.096;2023-09-19T12:13:15;1.08;;;0.90;;
45548;SDS011;31270;48.328;10.096;2023-09-19T12:15:44;1.20;;;1.10;;
45548;SDS011;31270;48.328;10.096;2023-09-19T12:18:28;1.50;;;1.10;;
45548;SDS011;31270;48.328;10.096;2023-09-19T12:20:54;1.58;;;0.90;;
45548;SDS011;31270;48.328;10.096;2023-09-19T12:23:20;2.38;;;1.30;;
45548;SDS011;31270;48.328;10.096;2023-09-19T12:25:46;1.55;;;1.10;;
45548;SDS011;31270;48.328;10.096;2023-09-19T12:28:15;1.25;;;1.00;;
45548;SDS011;31270;48.328;10.096;2023-09-19T12:30:42;1.10;;;1.00;;
45548;SDS011;31270;48.328;10.096;2023-09-19T12:33:15;2.17;;;1.00;;
45548;SDS011;31270;48.328;10.096;2023-09-19T12:35:45;1.52;;;1.17;;
45548;SDS011;31270;48.328;10.096;2023-09-19T12:38:11;1.40;;;1.10;;
45548;SDS011;31270;48.328;10.096;2023-09-19T12:40:48;1.42;;;1.10;;
45548;SDS011;31270;48.328;10.096;2023-09-19T12:43:16;1.25;;;0.90;;
45548;SDS011;31270;48.328;10.096;2023-09-19T12:45:43;2.35;;;1.00;;
45548;SDS011;31270;48.328;10.096;2023-09-19T12:48:23;1.83;;;1.05;;
45548;SDS011;31270;48.328;10.096;2023-09-19T12:53:33;1.75;;;1.10;;
45548;SDS011;31270;48.328;10.096;2023-09-19T12:56:03;1.30;;;1.05;;
45548;SDS011;31270;48.328;10.096;2023-09-19T12:58:33;1.88;;;1.15;;
45548;SDS011;31270;48.328;10.096;2023-09-19T13:01:00;2.20;;;1.10;;
45548;SDS011;31270;48.328;10.096;2023-09-19T13:03:28;2.58;;;1.20;;
45548;SDS011;31270;48.328;10.096;2023-09-19T13:05:57;1.10;;;1.00;;
45548;SDS011;31270;48.328;10.096;2023-09-19T13:08:28;3.65;;;0.95;;
45548;SDS011;31270;48.328;10.096;2023-09-19T13:11:03;1.30;;;1.20;;
45548;SDS011;31270;48.328;10.096;2023-09-19T13:13:44;2.40;;;1.20;;
45548;SDS011;31270;48.328;10.096;2023-09-19T13:16:14;1.38;;;1.05;;
45548;SDS011;31270;48.328;10.096;2023-09-19T13:18:45;2.03;;;1.20;;
45548;SDS011;31270;48.328;10.096;2023-09-19T13:21:16;2.17;;;1.20;;
45548;SDS011;31270;48.328;10.096;2023-09-19T13:23:52;2.65;;;1.33;;
45548;SDS011;31270;48.328;10.096;2023-09-19T13:26:25;1.25;;;0.88;;
45548;SDS011;31270;48.328;10.096;2023-09-19T13:28:50;2.00;;;0.90;;
45548;SDS011;31270;48.328;10.096;2023-09-19T13:31:17;1.05;;;0.80;;
45548;SDS011;31270;48.328;10.096;2023-09-19T13:33:47;1.80;;;1.02;;
45548;SDS011;31270;48.328;10.096;2023-09-19T13:36:13;1.50;;;1.10;;
45548;SDS011;31270;48.328;10.096;2023-09-19T13:38:40;2.65;;;1.10;;
45548;SDS011;31270;48.328;10.096;2023-09-19T13:41:08;1.58;;;1.13;;
45548;SDS011;31270;48.328;10.096;2023-09-19T13:43:35;1.08;;;0.98;;
45548;SDS011;31270;48.328;10.096;2023-09-19T13:46:01;2.15;;;0.90;;
45548;SDS011;31270;48.328;10.096;2023-09-19T13:48:27;1.35;;;1.00;;
45548;SDS011;31270;48.328;10.096;2023-09-19T13:50:55;1.75;;;0.90;;
45548;SDS011;31270;48.328;10.096;2023-09-19T13:53:21;2.00;;;1.10;;
45548;SDS011;31270;48.328;10.096;2023-09-19T13:55:47;2.05;;;1.20;;
45548;SDS011;31270;48.328;10.096;2023-09-19T13:58:14;3.35;;;1.48;;
45548;SDS011;31270;48.328;10.096;2023-09-19T14:00:40;2.15;;;1.10;;
45548;SDS011;31270;48.328;10.096;2023-09-19T14:03:05;2.25;;;0.90;;
45548;SDS011;31270;48.328;10.096;2023-09-19T14:05:31;1.08;;;0.90;;
45548;SDS011;31270;48.328;10.096;2023-09-19T14:07:57;3.13;;;1.10;;
45548;SDS011;31270;48.328;10.096;2023-09-19T14:10:24;1.33;;;1.23;;
45548;SDS011;31270;48.328;10.096;2023-09-19T14:12:53;2.33;;;1.00;;
45548;SDS011;31270;48.328;10.096;2023-09-19T14:15:18;3.05;;;1.00;;
45548;SDS011;31270;48.328;10.096;2023-09-19T14:17:44;4.18;;;1.10;;
45548;SDS011;31270;48.328;10.096;2023-09-19T14:20:10;1.83;;;1.10;;
45548;SDS011;31270;48.328;10.096;2023-09-19T14:22:37;1.40;;;1.30;;
45548;SDS011;31270;48.328;10.096;2023-09-19T14:25:03;1.67;;;1.17;;
45548;SDS011;31270;48.328;10.096;2023-09-19T14:27:29;3.83;;;1.38;;
45548;SDS011;31270;48.328;10.096;2023-09-19T14:29:55;2.42;;;1.20;;
45548;SDS011;31270;48.328;10.096;2023-09-19T14:32:22;1.63;;;1.00;;
45548;SDS011;31270;48.328;10.096;2023-09-19T14:34:48;1.95;;;1.10;;
45548;SDS011;31270;48.328;10.096;2023-09-19T14:37:14;2.60;;;1.15;;
45548;SDS011;31270;48.328;10.096;2023-09-19T14:39:41;2.42;;;1.30;;
45548;SDS011;31270;48.328;10.096;2023-09-19T14:42:09;1.40;;;1.13;;
45548;SDS011;31270;48.328;10.096;2023-09-19T14:44:35;1.70;;;1.15;;
45548;SDS011;31270;48.328;10.096;2023-09-19T14:47:03;1.75;;;1.35;;
45548;SDS011;31270;48.328;10.096;2023-09-19T14:49:33;5.07;;;1.63;;
45548;SDS011;31270;48.328;10.096;2023-09-19T14:51:59;1.30;;;1.10;;
45548;SDS011;31270;48.328;10.096;2023-09-19T14:54:25;4.38;;;1.45;;
45548;SDS011;31270;48.328;10.096;2023-09-19T14:56:54;5.72;;;1.30;;
45548;SDS011;31270;48.328;10.096;2023-09-19T14:59:29;4.70;;;1.50;;
45548;SDS011;31270;48.328;10.096;2023-09-19T15:01:59;2.78;;;1.02;;
45548;SDS011;31270;48.328;10.096;2023-09-19T15:04:25;3.88;;;1.33;;
45548;SDS011;31270;48.328;10.096;2023-09-19T15:06:52;2.67;;;1.38;;
45548;SDS011;31270;48.328;10.096;2023-09-19T15:09:20;3.65;;;1.42;;
45548;SDS011;31270;48.328;10.096;2023-09-19T15:11:54;5.45;;;1.50;;
45548;SDS011;31270;48.328;10.096;2023-09-19T15:14:21;3.28;;;1.30;;
45548;SDS011;31270;48.328;10.096;2023-09-19T15:16:47;2.38;;;1.20;;
45548;SDS011;31270;48.328;10.096;2023-09-19T15:19:19;2.05;;;1.30;;
45548;SDS011;31270;48.328;10.096;2023-09-19T15:21:47;1.25;;;1.10;;
45548;SDS011;31270;48.328;10.096;2023-09-19T15:24:13;3.05;;;1.50;;
45548;SDS011;31270;48.328;10.096;2023-09-19T15:26:40;1.77;;;1.30;;
45548;SDS011;31270;48.328;10.096;2023-09-19T15:29:06;1.90;;;1.20;;
45548;SDS011;31270;48.328;10.096;2023-09-19T15:31:32;3.00;;;1.30;;
45548;SDS011;31270;48.328;10.096;2023-09-19T15:33:58;1.90;;;1.20;;
45548;SDS011;31270;48.328;10.096;2023-09-19T15:36:24;2.47;;;1.35;;
45548;SDS011;31270;48.328;10.096;2023-09-19T15:38:57;1.20;;;1.10;;